createdAt,value
2018-04-19T00:02:12.592Z,55.70
2018-04-19T00:04:39.536Z,56.00
2018-04-19T00:07:05.732Z,56.00
2018-04-19T00:09:32.035Z,56.40
2018-04-19T00:11:58.285Z,56.80
2018-04-19T00:14:24.508Z,57.10
2018-04-19T00:16:50.726Z,56.90
2018-04-19T00:19:17.024Z,57.20
2018-04-19T00:21:43.233Z,57.50
2018-04-19T00:24:09.408Z,58.10
2018-04-19T00:26:35.660Z,58.60
2018-04-19T00:29:01.913Z,58.90
2018-04-19T00:31:28.908Z,58.60
2018-04-19T00:33:55.135Z,58.60
2018-04-19T00:36:21.390Z,58.70
2018-04-19T00:38:47.632Z,58.80
2018-04-19T00:41:13.851Z,58.70
2018-04-19T00:43:40.052Z,58.50
2018-04-19T00:46:06.263Z,58.40
2018-04-19T00:48:32.504Z,58.40
2018-04-19T00:50:58.740Z,58.20
2018-04-19T00:53:24.972Z,58.00
2018-04-19T00:55:58.309Z,58.00
2018-04-19T00:58:25.272Z,57.60
2018-04-19T01:00:51.502Z,57.50
2018-04-19T01:03:17.728Z,57.30
2018-04-19T01:05:43.941Z,57.10
2018-04-19T01:08:10.878Z,56.10
2018-04-19T01:10:37.840Z,56.00
2018-04-19T01:13:04.833Z,55.90
2018-04-19T01:15:31.115Z,55.80
2018-04-19T01:17:57.348Z,55.80
2018-04-19T01:20:23.551Z,56.00
2018-04-19T01:22:50.519Z,56.50
2018-04-19T01:25:16.918Z,56.50
2018-04-19T01:27:43.330Z,56.80
2018-04-19T01:30:09.615Z,57.20
2018-04-19T01:32:35.855Z,57.40
2018-04-19T01:35:02.120Z,57.30
2018-04-19T01:37:29.090Z,56.90
2018-04-19T01:39:55.304Z,56.90
2018-04-19T01:42:21.511Z,56.90
2018-04-19T01:44:47.768Z,57.20
2018-04-19T01:47:14.745Z,57.20
2018-04-19T01:49:41.096Z,57.20
2018-04-19T01:52:07.438Z,57.10
2018-04-19T01:54:33.699Z,57.20
2018-04-19T01:56:59.955Z,57.50
2018-04-19T01:59:26.203Z,57.70
2018-04-19T02:01:52.429Z,58.00
2018-04-19T02:04:18.637Z,58.10
2018-04-19T02:06:45.608Z,57.00
2018-04-19T02:09:11.835Z,56.90
2018-04-19T02:11:38.173Z,56.70
2018-04-19T02:14:04.456Z,56.90
2018-04-19T02:16:31.396Z,57.20
2018-04-19T02:18:58.350Z,57.20
2018-04-19T02:21:24.581Z,57.10
2018-04-19T02:23:52.081Z,58.00
2018-04-19T02:26:18.296Z,58.00
2018-04-19T02:28:44.679Z,58.20
2018-04-19T02:31:11.696Z,58.80
2018-04-19T02:33:37.881Z,58.80
2018-04-19T02:36:04.144Z,59.00
2018-04-19T02:38:30.455Z,59.20
2018-04-19T02:40:56.688Z,59.70
2018-04-19T02:43:22.882Z,60.00
2018-04-19T02:45:49.114Z,60.50
2018-04-19T02:48:15.478Z,60.30
2018-04-19T02:50:42.116Z,60.30
2018-04-19T02:53:08.524Z,60.30
2018-04-19T02:55:34.740Z,60.80
2018-04-19T02:58:08.663Z,61.20
2018-04-19T03:00:34.880Z,61.00
2018-04-19T03:03:01.131Z,61.10
2018-04-19T03:05:27.369Z,61.00
2018-04-19T03:07:53.677Z,59.70
2018-04-19T03:10:20.001Z,60.00
2018-04-19T03:12:46.333Z,59.70
2018-04-19T03:15:12.579Z,60.10
2018-04-19T03:17:38.784Z,60.40
2018-04-19T03:20:05.002Z,60.60
2018-04-19T03:22:31.396Z,60.60
2018-04-19T03:24:57.669Z,60.70
2018-04-19T03:27:23.964Z,60.70
2018-04-19T03:29:50.240Z,59.90
2018-04-19T03:32:16.486Z,59.80
2018-04-19T03:34:42.687Z,59.60
2018-04-19T03:37:08.905Z,59.60
2018-04-19T03:39:35.134Z,59.80
2018-04-19T03:42:01.331Z,60.20
2018-04-19T03:44:28.277Z,61.40
2018-04-19T03:46:55.264Z,60.30
2018-04-19T03:49:21.514Z,60.80
2018-04-19T03:51:47.792Z,61.10
2018-04-19T03:54:14.726Z,61.00
2018-04-19T03:56:41.695Z,60.70
2018-04-19T03:59:07.940Z,61.40
2018-04-19T04:01:34.143Z,60.40
2018-04-19T04:04:01.110Z,58.80
2018-04-19T04:06:27.353Z,58.70
2018-04-19T04:08:53.711Z,57.50
2018-04-19T04:11:19.916Z,57.30
2018-04-19T04:13:46.118Z,56.20
2018-04-19T04:16:24.698Z,55.40
2018-04-19T04:19:03.093Z,55.00
2018-04-19T04:21:29.466Z,54.50
2018-04-19T04:23:55.688Z,54.10
2018-04-19T04:26:22.669Z,53.80
2018-04-19T04:28:48.900Z,53.70
2018-04-19T04:31:15.304Z,53.60
2018-04-19T04:33:41.462Z,53.40
2018-04-19T04:36:07.671Z,53.20
2018-04-19T04:38:34.431Z,53.10
2018-04-19T04:41:01.001Z,52.90
2018-04-19T04:43:27.352Z,52.90
2018-04-19T04:45:54.483Z,53.10
2018-04-19T04:48:20.707Z,53.00
2018-04-19T04:50:46.932Z,53.50
2018-04-19T04:53:14.638Z,52.90
2018-04-19T04:55:40.993Z,52.80
2018-04-19T04:58:07.239Z,53.10
2018-04-19T05:00:33.486Z,52.90
2018-04-19T05:03:01.244Z,52.40
2018-04-19T05:05:27.560Z,52.40
2018-04-19T05:07:53.831Z,52.30
2018-04-19T05:10:20.048Z,52.10
2018-04-19T05:12:46.559Z,52.00
2018-04-19T05:15:12.847Z,52.00
2018-04-19T05:17:39.141Z,51.90
2018-04-19T05:20:07.035Z,51.70
2018-04-19T05:22:33.429Z,51.70
2018-04-19T05:24:59.668Z,51.50
2018-04-19T05:27:26.602Z,51.20
2018-04-19T05:29:52.860Z,51.20
2018-04-19T05:32:19.176Z,51.40
2018-04-19T05:34:46.143Z,50.90
2018-04-19T05:39:45.506Z,50.80
2018-04-19T05:42:11.801Z,50.70
2018-04-19T05:44:37.997Z,50.50
2018-04-19T05:47:04.396Z,50.50
2018-04-19T05:49:30.602Z,50.40
2018-04-19T05:51:56.836Z,50.20
2018-04-19T05:54:23.189Z,50.10
2018-04-19T05:56:50.281Z,49.80
2018-04-19T05:59:16.573Z,49.70
2018-04-19T06:01:43.559Z,49.40
2018-04-19T06:04:10.013Z,49.40
2018-04-19T06:06:37.049Z,48.90
2018-04-19T06:09:03.313Z,48.90
2018-04-19T06:11:29.540Z,48.70
2018-04-19T06:13:55.760Z,48.50
2018-04-19T06:16:22.042Z,48.20
2018-04-19T06:18:48.306Z,48.10
2018-04-19T06:21:14.517Z,47.90
2018-04-19T06:23:41.517Z,47.70
2018-04-19T06:26:08.494Z,47.60
2018-04-19T06:28:34.707Z,47.50
2018-04-19T06:31:00.966Z,47.30
2018-04-19T06:33:27.175Z,47.30
2018-04-19T06:35:53.636Z,47.00
2018-04-19T06:38:20.870Z,46.70
2018-04-19T06:40:48.364Z,46.70
2018-04-19T06:43:15.365Z,47.00
2018-04-19T06:45:41.598Z,46.50
2018-04-19T06:48:07.802Z,46.20
2018-04-19T06:50:34.788Z,46.40
2018-04-19T06:53:00.996Z,46.40
2018-04-19T06:55:27.319Z,46.00
2018-04-19T06:57:53.550Z,45.70
2018-04-19T07:00:19.884Z,45.60
2018-04-19T07:02:47.012Z,45.60
2018-04-19T07:05:14.333Z,44.90
2018-04-19T07:07:40.840Z,44.80
2018-04-19T07:10:07.061Z,44.40
2018-04-19T07:12:33.280Z,43.80
2018-04-19T07:14:59.507Z,41.80
2018-04-19T07:17:26.044Z,38.30
2018-04-19T07:19:52.259Z,34.50
2018-04-19T07:22:18.529Z,31.50
2018-04-19T07:24:44.965Z,28.80
2018-04-19T07:27:11.341Z,27.20
2018-04-19T07:29:37.552Z,25.80
2018-04-19T07:32:04.570Z,24.00
2018-04-19T07:34:31.068Z,23.80
2018-04-19T07:36:57.910Z,22.70
2018-04-19T07:39:25.232Z,21.10
2018-04-19T07:41:52.168Z,20.60
2018-04-19T07:44:19.264Z,20.00
2018-04-19T07:46:45.463Z,19.90
2018-04-19T07:49:11.785Z,19.20
2018-04-19T07:51:38.324Z,18.80
2018-04-19T07:54:04.572Z,18.30
2018-04-19T07:56:30.815Z,17.90
2018-04-19T07:58:57.049Z,17.70
2018-04-19T08:01:23.738Z,17.20
2018-04-19T08:03:50.122Z,16.30
2018-04-19T08:06:16.395Z,16.00
2018-04-19T08:08:42.764Z,15.70
2018-04-19T08:11:08.972Z,15.80
2018-04-19T08:13:35.497Z,15.70
2018-04-19T08:16:01.902Z,15.30
2018-04-19T08:18:28.888Z,15.10
2018-04-19T08:20:55.126Z,14.90
2018-04-19T08:23:21.313Z,14.70
2018-04-19T08:25:48.498Z,14.30
2018-04-19T08:28:18.177Z,14.20
2018-04-19T08:30:44.420Z,13.90
2018-04-19T08:33:10.695Z,13.60
2018-04-19T08:35:37.648Z,13.50
2018-04-19T08:38:03.885Z,13.10
2018-04-19T08:40:30.107Z,13.40
2018-04-19T08:42:57.158Z,13.20
2018-04-19T08:45:24.824Z,12.80
2018-04-19T08:47:51.056Z,12.70
2018-04-19T08:50:17.562Z,12.60
2018-04-19T08:52:43.857Z,12.50
2018-04-19T08:55:10.110Z,12.40
2018-04-19T08:57:36.372Z,12.30
2018-04-19T09:00:02.652Z,12.20
2018-04-19T09:02:28.884Z,11.80
2018-04-19T09:04:55.109Z,11.70
2018-04-19T09:07:21.292Z,11.60
2018-04-19T09:09:47.919Z,11.50
2018-04-19T09:12:15.174Z,11.40
2018-04-19T09:14:41.889Z,11.40
2018-04-19T09:17:08.110Z,11.90
2018-04-19T09:19:34.360Z,11.40
2018-04-19T09:22:00.882Z,11.90
2018-04-19T09:24:27.288Z,11.70
2018-04-19T09:26:55.253Z,11.50
2018-04-19T09:29:21.508Z,11.90
2018-04-19T09:31:47.746Z,12.00
2018-04-19T09:34:14.026Z,12.20
2018-04-19T09:36:40.300Z,11.90
2018-04-19T09:39:06.503Z,12.50
2018-04-19T09:41:32.706Z,12.90
2018-04-19T09:43:58.916Z,13.60
2018-04-19T09:46:25.557Z,14.20
2018-04-19T09:48:51.827Z,14.10
2018-04-19T09:51:21.656Z,14.70
2018-04-19T09:53:48.377Z,14.60
2018-04-19T09:56:15.423Z,16.00
2018-04-19T09:58:41.644Z,16.00
2018-04-19T10:01:07.908Z,16.70
2018-04-19T10:03:40.228Z,16.80
2018-04-19T10:06:07.289Z,17.10
2018-04-19T10:08:35.021Z,17.10
2018-04-19T10:11:01.998Z,17.50
2018-04-19T10:13:28.204Z,17.40
2018-04-19T10:15:54.434Z,17.90
2018-04-19T10:18:20.644Z,17.90
2018-04-19T10:20:46.860Z,17.90
2018-04-19T10:23:13.848Z,18.60
2018-04-19T10:25:40.065Z,18.60
2018-04-19T10:28:06.276Z,18.80
2018-04-19T10:30:33.237Z,18.90
2018-04-19T10:32:59.555Z,18.90
2018-04-19T10:35:25.815Z,19.00
2018-04-19T10:37:52.028Z,19.00
2018-04-19T10:40:18.248Z,18.80
2018-04-19T10:42:45.686Z,18.70
2018-04-19T10:45:12.631Z,19.40
2018-04-19T10:47:39.573Z,19.10
2018-04-19T10:50:05.918Z,19.00
2018-04-19T10:52:33.339Z,18.90
2018-04-19T10:55:00.526Z,19.00
2018-04-19T10:57:26.836Z,18.90
2018-04-19T10:59:53.805Z,18.70
2018-04-19T11:02:20.019Z,18.70
2018-04-19T11:04:47.236Z,18.60
2018-04-19T11:07:13.470Z,18.50
2018-04-19T11:09:39.723Z,18.80
2018-04-19T11:12:06.240Z,18.80
2018-04-19T11:14:50.211Z,19.50
2018-04-19T11:17:17.090Z,19.50
2018-04-19T11:19:43.486Z,19.40
2018-04-19T11:22:10.063Z,18.20
2018-04-19T11:24:36.409Z,18.60
2018-04-19T11:27:02.634Z,18.50
2018-04-19T11:29:28.887Z,18.90
2018-04-19T11:31:55.924Z,19.10
2018-04-19T11:34:22.414Z,19.00
2018-04-19T11:36:48.798Z,18.70
2018-04-19T11:39:16.482Z,19.50
2018-04-19T11:41:42.741Z,19.50
2018-04-19T11:44:09.144Z,19.60
2018-04-19T11:46:35.413Z,19.20
2018-04-19T11:49:01.618Z,19.10
2018-04-19T11:51:27.838Z,19.20
2018-04-19T11:53:54.976Z,19.50
2018-04-19T11:56:21.228Z,19.80
2018-04-19T11:58:47.611Z,19.20
2018-04-19T12:01:13.909Z,19.20
2018-04-19T12:03:40.187Z,19.30
2018-04-19T12:06:06.426Z,19.20
2018-04-19T12:08:32.648Z,19.30
2018-04-19T12:10:59.090Z,18.90
2018-04-19T12:13:26.116Z,20.00
2018-04-19T12:15:53.232Z,20.00
2018-04-19T12:18:19.546Z,20.00
2018-04-19T12:20:45.925Z,20.20
2018-04-19T12:23:12.153Z,20.30
2018-04-19T12:25:39.110Z,20.60
2018-04-19T12:28:05.357Z,20.50
2018-04-19T12:30:31.691Z,20.20
2018-04-19T12:32:57.994Z,19.50
2018-04-19T12:35:24.478Z,19.20
2018-04-19T12:37:50.811Z,19.40
2018-04-19T12:40:17.046Z,19.60
2018-04-19T12:42:43.547Z,20.10
2018-04-19T12:45:09.754Z,20.90
2018-04-19T12:47:35.952Z,20.60
2018-04-19T12:50:02.421Z,20.00
2018-04-19T12:52:28.608Z,19.70
2018-04-19T12:54:55.649Z,19.80
2018-04-19T12:57:21.926Z,19.70
2018-04-19T12:59:48.144Z,20.10
2018-04-19T13:02:14.599Z,20.80
2018-04-19T13:04:40.859Z,20.30
2018-04-19T13:07:07.103Z,19.90
2018-04-19T13:09:34.044Z,19.60
2018-04-19T13:12:01.111Z,19.90
2018-04-19T13:14:28.200Z,19.50
2018-04-19T13:16:55.310Z,19.50
2018-04-19T13:19:21.545Z,19.70
2018-04-19T13:21:47.754Z,19.50
2018-04-19T13:24:14.734Z,19.70
2018-04-19T13:26:41.306Z,19.60
2018-04-19T13:29:07.633Z,19.60
2018-04-19T13:31:33.860Z,19.40
2018-04-19T13:34:00.132Z,19.20
2018-04-19T13:36:27.262Z,19.20
2018-04-19T13:38:53.534Z,19.20
2018-04-19T13:41:20.809Z,19.40
2018-04-19T13:43:47.759Z,19.60
2018-04-19T13:46:14.264Z,19.50
2018-04-19T13:48:40.568Z,19.70
2018-04-19T13:51:07.541Z,19.20
2018-04-19T13:53:33.876Z,19.10
2018-04-19T13:56:00.363Z,19.20
2018-04-19T13:58:27.412Z,19.30
2018-04-19T14:00:54.364Z,19.50
2018-04-19T14:03:20.584Z,19.50
2018-04-19T14:05:47.738Z,19.70
2018-04-19T14:08:13.995Z,19.90
2018-04-19T14:10:40.238Z,20.00
2018-04-19T14:13:06.457Z,20.20
2018-04-19T14:15:33.240Z,20.10
2018-04-19T14:18:02.608Z,19.80
2018-04-19T14:20:28.989Z,19.80
2018-04-19T14:22:55.264Z,19.90
2018-04-19T14:25:21.544Z,20.00
2018-04-19T14:27:48.549Z,20.50
2018-04-19T14:30:14.767Z,20.50
2018-04-19T14:32:41.091Z,21.40
2018-04-19T14:35:07.357Z,21.70
2018-04-19T14:37:34.372Z,22.50
2018-04-19T14:40:00.634Z,22.50
2018-04-19T14:42:28.353Z,22.70
2018-04-19T14:44:54.752Z,22.70
2018-04-19T14:47:21.725Z,22.70
2018-04-19T14:49:48.941Z,22.40
2018-04-19T14:52:16.156Z,21.50
2018-04-19T14:54:42.382Z,21.50
2018-04-19T14:57:08.797Z,21.70
2018-04-19T14:59:36.388Z,21.80
2018-04-19T15:02:03.502Z,20.20
2018-04-19T15:04:29.722Z,20.10
2018-04-19T15:06:55.942Z,20.40
2018-04-19T15:09:22.219Z,21.30
2018-04-19T15:11:48.455Z,20.90
2018-04-19T15:14:15.409Z,20.40
2018-04-19T15:16:42.684Z,20.50
2018-04-19T15:19:08.960Z,20.50
2018-04-19T15:21:35.172Z,21.00
2018-04-19T15:24:01.406Z,20.90
2018-04-19T15:26:27.832Z,21.20
2018-04-19T15:28:54.076Z,21.20
2018-04-19T15:31:20.625Z,20.70
2018-04-19T15:33:47.628Z,20.50
2018-04-19T15:36:13.857Z,20.50
2018-04-19T15:38:40.338Z,20.50
2018-04-19T15:41:06.609Z,20.40
2018-04-19T15:43:32.868Z,20.40
2018-04-19T15:45:59.076Z,20.20
2018-04-19T15:48:26.113Z,20.30
2018-04-19T15:50:52.404Z,20.20
2018-04-19T15:53:19.388Z,20.70
2018-04-19T15:55:45.643Z,21.20
2018-04-19T15:58:11.848Z,20.80
2018-04-19T16:00:38.120Z,20.60
2018-04-19T16:03:04.351Z,20.90
2018-04-19T16:05:30.547Z,20.30
2018-04-19T16:07:56.893Z,20.40
2018-04-19T16:10:23.174Z,20.50
2018-04-19T16:12:49.412Z,20.40
2018-04-19T16:15:15.705Z,20.90
2018-04-19T16:17:41.912Z,20.50
2018-04-19T16:20:08.857Z,20.30
2018-04-19T16:22:35.098Z,20.40
2018-04-19T16:25:02.130Z,22.00
2018-04-19T16:27:29.147Z,22.40
2018-04-19T16:29:55.477Z,22.40
2018-04-19T16:32:21.683Z,22.80
2018-04-19T16:34:47.916Z,22.90
2018-04-19T16:37:14.180Z,23.10
2018-04-19T16:39:40.396Z,23.20
2018-04-19T16:42:06.693Z,23.60
2018-04-19T16:44:33.680Z,24.00
2018-04-19T16:46:59.969Z,24.00
2018-04-19T16:49:26.227Z,24.20
2018-04-19T16:51:52.462Z,24.40
2018-04-19T16:54:18.751Z,24.40
2018-04-19T16:56:44.995Z,24.10
2018-04-19T16:59:11.264Z,24.10
2018-04-19T17:01:37.527Z,24.20
2018-04-19T17:04:03.776Z,24.40
2018-04-19T17:06:30.065Z,24.70
2018-04-19T17:08:56.315Z,24.70
2018-04-19T17:11:22.586Z,25.00
2018-04-19T17:13:48.789Z,25.10
2018-04-19T17:16:15.088Z,25.10
2018-04-19T17:18:41.330Z,25.30
2018-04-19T17:21:07.580Z,25.40
2018-04-19T17:23:33.830Z,25.40
2018-04-19T17:26:00.069Z,25.20
2018-04-19T17:28:27.058Z,25.10
2018-04-19T17:30:53.336Z,25.10
2018-04-19T17:33:20.393Z,25.40
2018-04-19T17:35:46.640Z,25.40
2018-04-19T17:38:13.651Z,25.70
2018-04-19T17:40:39.902Z,25.60
2018-04-19T17:43:07.148Z,25.70
2018-04-19T17:45:33.397Z,25.60
2018-04-19T17:47:59.857Z,25.50
2018-04-19T17:50:26.051Z,25.60
2018-04-19T17:52:53.028Z,25.90
2018-04-19T17:55:19.285Z,25.90
2018-04-19T17:57:45.512Z,26.10
2018-04-19T18:00:11.888Z,26.20
2018-04-19T18:02:38.205Z,26.20
2018-04-19T18:05:04.431Z,26.20
2018-04-19T18:07:30.644Z,26.00
2018-04-19T18:09:56.872Z,26.00
2018-04-19T18:12:23.105Z,26.20
2018-04-19T18:14:49.400Z,26.40
2018-04-19T18:17:15.700Z,26.40
2018-04-19T18:19:41.977Z,26.70
2018-04-19T18:22:08.252Z,27.10
2018-04-19T18:24:35.225Z,27.10
2018-04-19T18:27:01.436Z,27.10
2018-04-19T18:29:27.673Z,27.20
2018-04-19T18:31:54.454Z,27.20
2018-04-19T18:34:20.712Z,27.30
2018-04-19T18:36:47.739Z,28.40
2018-04-19T18:39:14.842Z,28.90
2018-04-19T18:41:41.073Z,28.90
2018-04-19T18:44:07.312Z,29.80
2018-04-19T18:46:33.572Z,30.80
2018-04-19T18:48:59.800Z,30.90
2018-04-19T18:51:26.104Z,30.80
2018-04-19T18:53:53.856Z,31.70
2018-04-19T18:56:20.227Z,31.80
2018-04-19T18:58:46.595Z,32.50
2018-04-19T19:01:12.892Z,32.40
2018-04-19T19:03:39.128Z,32.40
2018-04-19T19:06:05.371Z,32.40
2018-04-19T19:08:32.404Z,32.50
2018-04-19T19:10:59.403Z,33.20
2018-04-19T19:13:25.704Z,32.40
2018-04-19T19:16:06.888Z,32.70
2018-04-19T19:18:45.356Z,33.10
2018-04-19T19:21:11.614Z,33.50
2018-04-19T19:23:38.596Z,34.10
2018-04-19T19:26:04.846Z,34.00
2018-04-19T19:28:31.072Z,34.30
2018-04-19T19:30:57.337Z,34.80
2018-04-19T19:33:23.688Z,34.60
2018-04-19T19:35:49.944Z,35.00
2018-04-19T19:38:16.246Z,35.00
2018-04-19T19:40:42.465Z,36.10
2018-04-19T19:43:08.687Z,36.20
2018-04-19T19:45:34.948Z,36.40
2018-04-19T19:48:01.200Z,36.40
2018-04-19T19:50:27.500Z,36.90
2018-04-19T19:52:53.783Z,37.20
2018-04-19T19:55:20.099Z,37.40
2018-04-19T19:57:46.363Z,37.90
2018-04-19T20:00:12.590Z,38.70
2018-04-19T20:02:39.326Z,39.30
2018-04-19T20:05:06.320Z,39.40
2018-04-19T20:07:32.669Z,39.40
2018-04-19T20:09:59.023Z,39.20
2018-04-19T20:12:26.066Z,39.10
2018-04-19T20:14:52.292Z,39.00
2018-04-19T20:17:18.520Z,38.00
2018-04-19T20:19:45.542Z,37.30
2018-04-19T20:22:11.906Z,37.60
2018-04-19T20:24:38.171Z,36.60
2018-04-19T20:27:04.439Z,37.60
2018-04-19T20:29:30.758Z,37.00
2018-04-19T20:31:56.964Z,37.90
2018-04-19T20:34:24.985Z,38.70
2018-04-19T20:36:52.090Z,38.80
2018-04-19T20:39:18.381Z,39.20
2018-04-19T20:41:44.813Z,39.20
2018-04-19T20:44:11.257Z,38.30
2018-04-19T20:46:37.489Z,37.70
2018-04-19T20:49:03.751Z,37.40
2018-04-19T20:51:30.009Z,37.70
2018-04-19T20:53:57.066Z,37.00
2018-04-19T20:56:23.297Z,37.00
2018-04-19T20:58:50.303Z,36.80
2018-04-19T21:01:16.524Z,36.70
2018-04-19T21:03:42.831Z,37.00
2018-04-19T21:06:09.174Z,36.40
2018-04-19T21:08:35.480Z,36.00
2018-04-19T21:11:01.779Z,36.30
2018-04-19T21:13:27.967Z,36.40
2018-04-19T21:15:54.267Z,36.80
2018-04-19T21:18:20.688Z,36.30
2018-04-19T21:20:46.928Z,36.50
2018-04-19T21:23:13.259Z,36.20
2018-04-19T21:25:39.460Z,37.00
2018-04-19T21:28:06.440Z,37.40
2018-04-19T21:30:32.677Z,37.30
2018-04-19T21:32:58.863Z,36.90
2018-04-19T21:35:25.858Z,37.30
2018-04-19T21:37:52.115Z,37.20
2018-04-19T21:40:19.096Z,38.20
2018-04-19T21:42:45.393Z,38.20
2018-04-19T21:45:11.626Z,39.00
2018-04-19T21:47:38.587Z,39.50
2018-04-19T21:50:04.843Z,39.40
2018-04-19T21:52:31.057Z,39.00
2018-04-19T21:54:57.266Z,39.30
2018-04-19T21:57:24.236Z,39.50
2018-04-19T21:59:50.521Z,39.50
2018-04-19T22:02:17.520Z,40.00
2018-04-19T22:04:43.737Z,39.90
2018-04-19T22:07:10.016Z,39.60
2018-04-19T22:09:36.236Z,39.40
2018-04-19T22:12:02.462Z,39.60
2018-04-19T22:14:28.719Z,40.00
2018-04-19T22:16:55.982Z,39.70
2018-04-19T22:19:22.276Z,39.60
2018-04-19T22:21:49.283Z,40.30
2018-04-19T22:24:15.514Z,40.70
2018-04-19T22:26:42.658Z,41.20
2018-04-19T22:29:08.852Z,41.10
2018-04-19T22:31:35.818Z,42.50
2018-04-19T22:34:02.540Z,42.50
2018-04-19T22:36:28.793Z,42.00
2018-04-19T22:38:55.344Z,41.30
2018-04-19T22:41:21.564Z,41.80
2018-04-19T22:43:47.787Z,42.00
2018-04-19T22:46:14.016Z,42.40
2018-04-19T22:48:40.236Z,41.40
2018-04-19T22:51:06.488Z,41.20
2018-04-19T22:53:32.728Z,39.80
2018-04-19T22:55:58.963Z,39.00
2018-04-19T22:58:25.942Z,38.80
2018-04-19T23:00:52.907Z,39.10
2018-04-19T23:03:19.088Z,38.50
2018-04-19T23:05:45.520Z,39.20
2018-04-19T23:08:11.728Z,39.60
2018-04-19T23:10:37.996Z,38.40
2018-04-19T23:13:04.967Z,37.60
2018-04-19T23:15:31.179Z,37.50
2018-04-19T23:17:57.408Z,38.00
2018-04-19T23:20:24.333Z,38.90
2018-04-19T23:22:51.301Z,39.30
2018-04-19T23:25:17.488Z,39.30
2018-04-19T23:27:43.700Z,38.80
2018-04-19T23:30:09.932Z,39.10
2018-04-19T23:32:38.982Z,39.30
2018-04-19T23:35:05.288Z,39.20
2018-04-19T23:37:32.291Z,38.10
2018-04-19T23:39:58.527Z,38.00
2018-04-19T23:42:24.735Z,37.80
2018-04-19T23:44:50.935Z,37.90
2018-04-19T23:47:17.144Z,37.70
2018-04-19T23:49:44.108Z,37.50
2018-04-19T23:52:10.308Z,37.40
2018-04-19T23:54:37.308Z,37.10
2018-04-19T23:57:03.561Z,37.10
2018-04-19T23:59:29.772Z,37.00
